Time;durP1;ratioP1;P1;durP2;ratioP2;P2;SDS_P1;SDS_P2;PMS_P1;PMS_P2;Temp;Humidity;BMP_temperature;BMP_pressure;BME280_temperature;BME280_humidity;BME280_pressure;Samples;Min_cycle;Max_cycle;Signal;HPM_P1;HPM_P2
2022/01/22 11:59:04;;;;;;;10.73;1.60;;;;;;;;;;5066662;28;20897;-81
2022/01/22 12:01:41;;;;;;;8.43;1.60;;;;;;;;;;5071140;28;20115;-81
2022/01/22 12:04:09;;;;;;;16.85;2.60;;;;;;;;;;5069421;28;20036;-81
2022/01/22 12:06:35;;;;;;;6.55;1.60;;;;;;;;;;5070996;28;20034;-82
2022/01/22 12:09:12;;;;;;;7.72;1.70;;;;;;;;;;5069455;28;20024;-80
2022/01/22 12:14:50;;;;;;;6.13;1.73;;;;;;;;;;5070020;28;20044;-80
2022/01/22 12:17:27;;;;;;;7.70;2.17;;;;;;;;;;5071099;28;20024;-82
2022/01/22 12:22:34;;;;;;;7.10;2.00;;;;;;;;;;5069604;28;20025;-79
2022/01/22 12:25:22;;;;;;;8.43;1.90;;;;;;;;;;5070649;28;20020;-80
2022/01/22 12:27:49;;;;;;;7.25;1.70;;;;;;;;;;5070750;28;20372;-78
2022/01/22 12:30:17;;;;;;;6.30;1.90;;;;;;;;;;5052283;28;20032;-80
2022/01/22 12:32:47;;;;;;;9.73;2.63;;;;;;;;;;5052113;28;20519;-80
2022/01/22 12:35:17;;;;;;;6.65;1.73;;;;;;;;;;5068495;28;20108;-81
2022/01/22 12:37:47;;;;;;;7.82;1.70;;;;;;;;;;5068853;28;20032;-81
2022/01/22 12:40:14;;;;;;;3.80;1.50;;;;;;;;;;5053611;28;20482;-80
2022/01/22 12:43:09;;;;;;;5.22;1.85;;;;;;;;;;5069259;28;20032;-80
2022/01/22 12:45:36;;;;;;;3.72;1.33;;;;;;;;;;5069139;28;20029;-80
2022/01/22 12:48:02;;;;;;;5.93;1.60;;;;;;;;;;5068559;28;20021;-81
2022/01/22 12:50:31;;;;;;;3.25;1.52;;;;;;;;;;5069964;28;20084;-81
2022/01/22 12:53:03;;;;;;;6.88;1.48;;;;;;;;;;5068502;28;20020;-81
2022/01/22 12:56:00;;;;;;;4.60;1.40;;;;;;;;;;5068853;28;20055;-79
2022/01/22 12:58:25;;;;;;;4.60;1.35;;;;;;;;;;5068072;28;20512;-79
2022/01/22 13:00:54;;;;;;;4.07;1.65;;;;;;;;;;5069872;28;20039;-80
2022/01/22 13:03:34;;;;;;;5.38;1.70;;;;;;;;;;5068372;28;20031;-83
2022/01/22 13:06:00;;;;;;;3.85;1.40;;;;;;;;;;5051811;28;20028;-81
2022/01/22 13:08:30;;;;;;;3.70;1.70;;;;;;;;;;5049346;28;20025;-84
2022/01/22 13:10:59;;;;;;;5.57;1.55;;;;;;;;;;5054906;28;20025;-81
2022/01/22 13:13:24;;;;;;;2.97;1.40;;;;;;;;;;5055632;28;20055;-81
2022/01/22 13:16:01;;;;;;;6.90;2.00;;;;;;;;;;5038182;28;20033;-82
2022/01/22 13:18:46;;;;;;;6.28;1.52;;;;;;;;;;5055079;28;20096;-81
2022/01/22 13:21:12;;;;;;;4.63;1.42;;;;;;;;;;5056086;28;20078;-81
2022/01/22 13:23:38;;;;;;;10.13;1.95;;;;;;;;;;5037965;28;20029;-81
2022/01/22 13:26:05;;;;;;;4.15;1.50;;;;;;;;;;5055057;28;20162;-81
2022/01/22 13:28:33;;;;;;;2.28;1.40;;;;;;;;;;5021645;28;20040;-82
2022/01/22 13:31:05;;;;;;;4.78;1.50;;;;;;;;;;5055060;28;20111;-84
2022/01/22 13:33:54;;;;;;;4.75;1.60;;;;;;;;;;5038636;28;20507;-82
2022/01/22 13:36:42;;;;;;;6.38;1.80;;;;;;;;;;5027795;28;20118;-83
2022/01/22 13:49:52;;;;;;;2.42;1.40;;;;;;;;;;5055889;28;20040;-81
2022/01/22 13:52:19;;;;;;;8.50;2.22;;;;;;;;;;5054355;28;20025;-78
2022/01/22 13:54:48;;;;;;;7.30;1.95;;;;;;;;;;5054299;28;20027;-79
2022/01/22 13:57:15;;;;;;;8.75;2.55;;;;;;;;;;5054084;28;20576;-79
2022/01/22 13:59:43;;;;;;;8.95;2.17;;;;;;;;;;5037253;28;20029;-80
2022/01/22 14:04:46;;;;;;;12.25;2.17;;;;;;;;;;5055103;28;20033;-79
2022/01/22 14:07:19;;;;;;;5.35;2.00;;;;;;;;;;5055141;28;20365;-80
2022/01/22 14:10:00;;;;;;;5.63;1.90;;;;;;;;;;5037229;28;20175;-78
2022/01/22 14:12:48;;;;;;;5.90;1.75;;;;;;;;;;5055298;28;20038;-78
2022/01/22 14:15:17;;;;;;;5.07;1.73;;;;;;;;;;5054698;28;20507;-78
2022/01/22 14:18:17;;;;;;;5.07;1.88;;;;;;;;;;5054065;28;20337;-79
2022/01/22 14:20:48;;;;;;;5.60;1.65;;;;;;;;;;5055170;28;20187;-77
2022/01/22 14:23:19;;;;;;;6.43;1.75;;;;;;;;;;5054911;28;20025;-77
2022/01/22 14:26:02;;;;;;;4.45;1.60;;;;;;;;;;5055030;28;20029;-78
2022/01/22 14:28:42;;;;;;;6.57;1.83;;;;;;;;;;5054556;28;20036;-78
2022/01/22 14:31:31;;;;;;;3.35;1.30;;;;;;;;;;5053389;28;20033;-77
2022/01/22 14:34:07;;;;;;;6.70;1.63;;;;;;;;;;5053457;28;20083;-77
2022/01/22 14:36:43;;;;;;;8.65;1.55;;;;;;;;;;5053350;28;20078;-77
2022/01/22 14:39:15;;;;;;;4.57;1.88;;;;;;;;;;5053642;28;20027;-77
2022/01/22 14:44:36;;;;;;;8.73;2.08;;;;;;;;;;5054469;28;20071;-78
2022/01/22 14:47:10;;;;;;;3.35;1.65;;;;;;;;;;5052941;28;20112;-78
2022/01/22 14:49:42;;;;;;;6.60;1.58;;;;;;;;;;5054669;28;20031;-78
2022/01/22 14:52:10;;;;;;;6.05;1.40;;;;;;;;;;5054625;28;20021;-79
2022/01/22 14:54:45;;;;;;;4.40;1.75;;;;;;;;;;5056713;28;20020;-77
2022/01/22 14:57:14;;;;;;;4.35;1.63;;;;;;;;;;5055338;28;20128;-79
2022/01/22 14:59:41;;;;;;;2.85;1.30;;;;;;;;;;5055459;28;20025;-80
2022/01/22 15:02:07;;;;;;;4.03;1.90;;;;;;;;;;5055293;28;20033;-78
2022/01/22 15:04:34;;;;;;;4.57;1.50;;;;;;;;;;5053836;28;20034;-79
2022/01/22 15:07:05;;;;;;;5.60;1.50;;;;;;;;;;5054159;28;20531;-79
2022/01/22 15:09:31;;;;;;;5.13;1.23;;;;;;;;;;5054067;28;20025;-79
2022/01/22 15:11:57;;;;;;;3.47;1.50;;;;;;;;;;5036327;28;20393;-79
2022/01/22 15:14:26;;;;;;;2.30;1.15;;;;;;;;;;5034310;28;20096;-79
2022/01/22 15:17:13;;;;;;;6.05;1.48;;;;;;;;;;5033454;28;20431;-78
2022/01/22 15:19:43;;;;;;;3.55;1.33;;;;;;;;;;5033863;28;20029;-78
2022/01/22 15:22:10;;;;;;;2.60;1.48;;;;;;;;;;5034130;28;20423;-79
2022/01/22 15:24:37;;;;;;;4.85;1.73;;;;;;;;;;5035428;28;20451;-79
2022/01/22 15:27:03;;;;;;;2.85;1.70;;;;;;;;;;5026853;28;20083;-77
2022/01/22 15:33:03;;;;;;;2.30;1.33;;;;;;;;;;5031860;28;20056;-76
2022/01/22 15:34:58;;;;;;;2.35;1.33;;;;;;;;;;5034198;28;20029;-76
2022/01/22 15:37:24;;;;;;;3.03;1.33;;;;;;;;;;5035503;28;20026;-76
2022/01/22 15:39:50;;;;;;;5.50;1.60;;;;;;;;;;5019538;28;20068;-79
2022/01/22 15:42:16;;;;;;;4.03;1.55;;;;;;;;;;5033679;28;20030;-77
2022/01/22 15:44:42;;;;;;;4.05;1.40;;;;;;;;;;5031396;28;20056;-76
2022/01/22 15:47:07;;;;;;;5.82;1.60;;;;;;;;;;5031213;28;20026;-76
2022/01/22 15:49:33;;;;;;;3.35;1.40;;;;;;;;;;5032644;28;20433;-76
2022/01/22 15:51:59;;;;;;;4.40;1.60;;;;;;;;;;5033177;28;20100;-76
2022/01/22 15:54:25;;;;;;;3.00;1.40;;;;;;;;;;5033002;28;20154;-76
2022/01/22 15:56:54;;;;;;;5.43;1.52;;;;;;;;;;5013894;28;20060;-77
2022/01/22 15:59:21;;;;;;;1.45;1.35;;;;;;;;;;5031308;28;20052;-77
2022/01/22 16:01:48;;;;;;;2.00;1.40;;;;;;;;;;5027203;28;20553;-75
2022/01/22 16:04:14;;;;;;;4.32;1.30;;;;;;;;;;5025283;28;20048;-77
2022/01/22 16:09:19;;;;;;;5.35;1.50;;;;;;;;;;5032581;28;20362;-77
2022/01/22 16:11:46;;;;;;;7.22;1.67;;;;;;;;;;5033250;28;20045;-78
2022/01/22 16:14:11;;;;;;;8.10;2.28;;;;;;;;;;5032540;28;20478;-76
2022/01/22 16:16:40;;;;;;;3.85;1.92;;;;;;;;;;5014795;28;20057;-78
2022/01/22 16:19:06;;;;;;;2.55;1.50;;;;;;;;;;5030819;28;20014;-79
2022/01/22 16:21:32;;;;;;;2.88;1.60;;;;;;;;;;5033248;28;20041;-78
2022/01/22 16:23:59;;;;;;;3.42;1.95;;;;;;;;;;5032330;28;20068;-78
2022/01/22 16:26:24;;;;;;;6.50;2.50;;;;;;;;;;5031670;28;20021;-79
2022/01/22 16:28:50;;;;;;;4.03;2.35;;;;;;;;;;5032631;28;20396;-78
2022/01/22 16:31:15;;;;;;;3.33;2.10;;;;;;;;;;5032960;28;20037;-79
2022/01/22 16:33:41;;;;;;;6.07;2.55;;;;;;;;;;5034931;28;20044;-78
2022/01/22 16:36:07;;;;;;;4.10;2.45;;;;;;;;;;5033008;28;20032;-77
2022/01/22 16:38:32;;;;;;;3.17;2.30;;;;;;;;;;5033318;28;20112;-78
2022/01/22 16:40:59;;;;;;;3.08;2.08;;;;;;;;;;5027572;28;20029;-78
2022/01/22 16:43:30;;;;;;;3.42;2.60;;;;;;;;;;5030865;28;20509;-78
2022/01/22 16:51:21;;;;;;;3.97;2.50;;;;;;;;;;5033817;28;20036;-78
2022/01/22 16:56:24;;;;;;;3.28;2.30;;;;;;;;;;5035718;28;20381;-77
2022/01/22 16:58:51;;;;;;;3.13;2.30;;;;;;;;;;5035621;28;20066;-77
